sensor_id;sensor_type;location;lat;lon;timestamp;P1;durP1;ratioP1;P2;durP2;ratioP2
42964;SDS011;28604;51.204;22.552;2023-07-31T00:00:53;9.57;;;3.33;;
42964;SDS011;28604;51.204;22.552;2023-07-31T00:03:25;5.03;;;3.42;;
42964;SDS011;28604;51.204;22.552;2023-07-31T00:05:51;5.82;;;3.28;;
42964;SDS011;28604;51.204;22.552;2023-07-31T00:08:17;10.13;;;3.38;;
42964;SDS011;28604;51.204;22.552;2023-07-31T00:10:43;6.75;;;3.85;;
42964;SDS011;28604;51.204;22.552;2023-07-31T00:13:09;3.38;;;3.17;;
42964;SDS011;28604;51.204;22.552;2023-07-31T00:15:35;7.43;;;3.55;;
42964;SDS011;28604;51.204;22.552;2023-07-31T00:18:01;5.68;;;3.65;;
42964;SDS011;28604;51.204;22.552;2023-07-31T00:20:29;3.15;;;2.97;;
42964;SDS011;28604;51.204;22.552;2023-07-31T00:22:55;8.85;;;3.13;;
42964;SDS011;28604;51.204;22.552;2023-07-31T00:25:21;7.28;;;3.33;;
42964;SDS011;28604;51.204;22.552;2023-07-31T00:27:47;5.65;;;3.13;;
42964;SDS011;28604;51.204;22.552;2023-07-31T00:30:13;3.05;;;2.78;;
42964;SDS011;28604;51.204;22.552;2023-07-31T00:32:39;7.18;;;3.38;;
42964;SDS011;28604;51.204;22.552;2023-07-31T00:35:05;5.57;;;3.00;;
42964;SDS011;28604;51.204;22.552;2023-07-31T00:37:31;3.58;;;2.92;;
42964;SDS011;28604;51.204;22.552;2023-07-31T00:39:57;6.32;;;3.15;;
42964;SDS011;28604;51.204;22.552;2023-07-31T00:42:24;2.97;;;2.78;;
42964;SDS011;28604;51.204;22.552;2023-07-31T00:44:50;5.63;;;3.28;;
42964;SDS011;28604;51.204;22.552;2023-07-31T00:47:16;4.75;;;2.80;;
42964;SDS011;28604;51.204;22.552;2023-07-31T00:49:41;4.60;;;2.72;;
42964;SDS011;28604;51.204;22.552;2023-07-31T00:52:08;3.20;;;3.00;;
42964;SDS011;28604;51.204;22.552;2023-07-31T00:54:34;3.90;;;3.50;;
42964;SDS011;28604;51.204;22.552;2023-07-31T00:57:01;4.57;;;3.17;;
42964;SDS011;28604;51.204;22.552;2023-07-31T00:59:27;3.90;;;2.85;;
42964;SDS011;28604;51.204;22.552;2023-07-31T01:01:53;5.90;;;3.53;;
42964;SDS011;28604;51.204;22.552;2023-07-31T01:04:20;3.30;;;3.00;;
42964;SDS011;28604;51.204;22.552;2023-07-31T01:06:48;3.45;;;3.05;;
42964;SDS011;28604;51.204;22.552;2023-07-31T01:09:25;3.80;;;3.05;;
42964;SDS011;28604;51.204;22.552;2023-07-31T01:11:57;7.30;;;3.83;;
42964;SDS011;28604;51.204;22.552;2023-07-31T01:14:27;5.35;;;3.70;;
42964;SDS011;28604;51.204;22.552;2023-07-31T01:16:53;10.65;;;3.45;;
42964;SDS011;28604;51.204;22.552;2023-07-31T01:19:21;4.80;;;2.53;;
42964;SDS011;28604;51.204;22.552;2023-07-31T01:24:54;7.38;;;3.38;;
42964;SDS011;28604;51.204;22.552;2023-07-31T01:28:04;2.83;;;2.72;;
42964;SDS011;28604;51.204;22.552;2023-07-31T01:30:32;5.15;;;3.15;;
42964;SDS011;28604;51.204;22.552;2023-07-31T01:33:01;3.63;;;3.33;;
42964;SDS011;28604;51.204;22.552;2023-07-31T01:35:34;4.82;;;3.28;;
42964;SDS011;28604;51.204;22.552;2023-07-31T01:38:02;8.50;;;3.42;;
42964;SDS011;28604;51.204;22.552;2023-07-31T01:40:28;4.88;;;2.67;;
42964;SDS011;28604;51.204;22.552;2023-07-31T01:42:54;3.03;;;2.80;;
42964;SDS011;28604;51.204;22.552;2023-07-31T01:45:20;4.60;;;3.13;;
42964;SDS011;28604;51.204;22.552;2023-07-31T01:47:46;3.67;;;2.80;;
42964;SDS011;28604;51.204;22.552;2023-07-31T01:50:12;7.28;;;3.38;;
42964;SDS011;28604;51.204;22.552;2023-07-31T01:52:38;2.97;;;2.72;;
42964;SDS011;28604;51.204;22.552;2023-07-31T01:55:04;2.40;;;2.03;;
42964;SDS011;28604;51.204;22.552;2023-07-31T01:57:30;6.22;;;2.80;;
42964;SDS011;28604;51.204;22.552;2023-07-31T01:59:56;3.17;;;2.72;;
42964;SDS011;28604;51.204;22.552;2023-07-31T02:02:22;3.90;;;2.85;;
42964;SDS011;28604;51.204;22.552;2023-07-31T02:04:48;2.92;;;2.67;;
42964;SDS011;28604;51.204;22.552;2023-07-31T02:07:14;4.85;;;2.47;;
42964;SDS011;28604;51.204;22.552;2023-07-31T02:09:40;9.93;;;2.78;;
42964;SDS011;28604;51.204;22.552;2023-07-31T02:12:06;6.90;;;2.45;;
42964;SDS011;28604;51.204;22.552;2023-07-31T02:14:34;4.55;;;2.58;;
42964;SDS011;28604;51.204;22.552;2023-07-31T02:17:00;2.65;;;2.50;;
42964;SDS011;28604;51.204;22.552;2023-07-31T02:19:26;5.10;;;2.78;;
42964;SDS011;28604;51.204;22.552;2023-07-31T02:21:52;4.65;;;2.15;;
42964;SDS011;28604;51.204;22.552;2023-07-31T02:24:18;3.17;;;2.53;;
42964;SDS011;28604;51.204;22.552;2023-07-31T02:26:44;6.40;;;2.72;;
42964;SDS011;28604;51.204;22.552;2023-07-31T02:29:10;8.15;;;2.90;;
42964;SDS011;28604;51.204;22.552;2023-07-31T02:31:36;5.50;;;2.60;;
42964;SDS011;28604;51.204;22.552;2023-07-31T02:34:02;2.55;;;2.35;;
42964;SDS011;28604;51.204;22.552;2023-07-31T02:36:28;4.15;;;2.30;;
42964;SDS011;28604;51.204;22.552;2023-07-31T02:38:55;6.43;;;3.08;;
42964;SDS011;28604;51.204;22.552;2023-07-31T02:41:21;6.35;;;3.10;;
42964;SDS011;28604;51.204;22.552;2023-07-31T02:43:46;2.20;;;2.10;;
42964;SDS011;28604;51.204;22.552;2023-07-31T02:46:13;3.25;;;2.00;;
42964;SDS011;28604;51.204;22.552;2023-07-31T02:48:40;2.58;;;2.38;;
42964;SDS011;28604;51.204;22.552;2023-07-31T02:51:06;4.45;;;2.30;;
42964;SDS011;28604;51.204;22.552;2023-07-31T02:53:32;2.33;;;2.22;;
42964;SDS011;28604;51.204;22.552;2023-07-31T02:55:58;3.50;;;2.70;;
42964;SDS011;28604;51.204;22.552;2023-07-31T02:58:24;4.32;;;2.63;;
42964;SDS011;28604;51.204;22.552;2023-07-31T03:00:50;3.28;;;3.03;;
42964;SDS011;28604;51.204;22.552;2023-07-31T03:03:16;3.25;;;2.90;;
42964;SDS011;28604;51.204;22.552;2023-07-31T03:05:42;3.40;;;2.35;;
42964;SDS011;28604;51.204;22.552;2023-07-31T03:08:08;5.03;;;2.80;;
42964;SDS011;28604;51.204;22.552;2023-07-31T03:10:34;2.55;;;2.05;;
42964;SDS011;28604;51.204;22.552;2023-07-31T03:13:00;2.38;;;2.15;;
42964;SDS011;28604;51.204;22.552;2023-07-31T03:15:26;4.07;;;2.38;;
42964;SDS011;28604;51.204;22.552;2023-07-31T03:17:52;5.20;;;2.40;;
42964;SDS011;28604;51.204;22.552;2023-07-31T03:20:18;3.50;;;2.00;;
42964;SDS011;28604;51.204;22.552;2023-07-31T03:22:44;4.63;;;2.00;;
42964;SDS011;28604;51.204;22.552;2023-07-31T03:25:10;2.20;;;2.03;;
42964;SDS011;28604;51.204;22.552;2023-07-31T03:27:37;3.38;;;1.65;;
42964;SDS011;28604;51.204;22.552;2023-07-31T03:30:03;4.25;;;2.10;;
42964;SDS011;28604;51.204;22.552;2023-07-31T03:32:29;4.30;;;1.80;;
42964;SDS011;28604;51.204;22.552;2023-07-31T03:34:55;1.75;;;1.65;;
42964;SDS011;28604;51.204;22.552;2023-07-31T03:37:21;3.08;;;1.85;;
42964;SDS011;28604;51.204;22.552;2023-07-31T03:39:47;5.13;;;1.95;;
42964;SDS011;28604;51.204;22.552;2023-07-31T03:42:13;2.30;;;2.05;;
42964;SDS011;28604;51.204;22.552;2023-07-31T03:44:39;1.70;;;1.60;;
42964;SDS011;28604;51.204;22.552;2023-07-31T03:47:08;2.42;;;2.30;;
42964;SDS011;28604;51.204;22.552;2023-07-31T03:49:37;6.05;;;2.00;;
42964;SDS011;28604;51.204;22.552;2023-07-31T03:52:03;2.42;;;1.77;;
42964;SDS011;28604;51.204;22.552;2023-07-31T03:54:29;2.22;;;2.03;;
42964;SDS011;28604;51.204;22.552;2023-07-31T03:56:55;1.80;;;1.70;;
42964;SDS011;28604;51.204;22.552;2023-07-31T03:59:21;2.05;;;1.95;;
42964;SDS011;28604;51.204;22.552;2023-07-31T04:01:47;2.17;;;2.08;;
42964;SDS011;28604;51.204;22.552;2023-07-31T04:04:13;2.28;;;2.17;;
42964;SDS011;28604;51.204;22.552;2023-07-31T04:06:39;3.28;;;2.30;;
42964;SDS011;28604;51.204;22.552;2023-07-31T04:09:05;2.10;;;2.00;;
42964;SDS011;28604;51.204;22.552;2023-07-31T04:11:31;4.10;;;2.35;;
42964;SDS011;28604;51.204;22.552;2023-07-31T04:13:57;3.75;;;2.75;;
42964;SDS011;28604;51.204;22.552;2023-07-31T04:16:23;2.95;;;2.13;;
42964;SDS011;28604;51.204;22.552;2023-07-31T04:18:49;3.33;;;2.20;;
42964;SDS011;28604;51.204;22.552;2023-07-31T04:21:15;2.40;;;2.28;;
42964;SDS011;28604;51.204;22.552;2023-07-31T04:26:23;4.60;;;1.92;;
42964;SDS011;28604;51.204;22.552;2023-07-31T04:28:49;2.22;;;2.00;;
42964;SDS011;28604;51.204;22.552;2023-07-31T04:31:15;2.10;;;1.90;;
42964;SDS011;28604;51.204;22.552;2023-07-31T04:33:41;5.88;;;2.08;;
42964;SDS011;28604;51.204;22.552;2023-07-31T04:36:07;1.88;;;1.83;;
42964;SDS011;28604;51.204;22.552;2023-07-31T04:38:33;2.30;;;2.10;;
42964;SDS011;28604;51.204;22.552;2023-07-31T04:40:59;2.75;;;2.55;;
42964;SDS011;28604;51.204;22.552;2023-07-31T04:43:25;5.80;;;2.10;;
42964;SDS011;28604;51.204;22.552;2023-07-31T04:45:50;1.73;;;1.67;;
42964;SDS011;28604;51.204;22.552;2023-07-31T04:48:18;3.05;;;2.85;;
42964;SDS011;28604;51.204;22.552;2023-07-31T04:50:44;1.75;;;1.65;;
42964;SDS011;28604;51.204;22.552;2023-07-31T04:53:10;3.25;;;1.75;;
42964;SDS011;28604;51.204;22.552;2023-07-31T04:55:39;1.88;;;1.73;;
42964;SDS011;28604;51.204;22.552;2023-07-31T04:58:05;2.33;;;1.70;;
42964;SDS011;28604;51.204;22.552;2023-07-31T05:00:31;1.63;;;1.52;;
42964;SDS011;28604;51.204;22.552;2023-07-31T05:02:57;12.35;;;1.90;;
42964;SDS011;28604;51.204;22.552;2023-07-31T05:05:23;1.65;;;1.55;;
42964;SDS011;28604;51.204;22.552;2023-07-31T05:07:49;1.98;;;1.55;;
42964;SDS011;28604;51.204;22.552;2023-07-31T05:10:15;3.67;;;1.33;;
42964;SDS011;28604;51.204;22.552;2023-07-31T05:12:41;1.92;;;1.83;;
42964;SDS011;28604;51.204;22.552;2023-07-31T05:15:07;3.40;;;1.52;;
42964;SDS011;28604;51.204;22.552;2023-07-31T05:17:33;3.22;;;1.70;;
42964;SDS011;28604;51.204;22.552;2023-07-31T05:19:59;4.13;;;1.58;;
42964;SDS011;28604;51.204;22.552;2023-07-31T05:22:25;1.67;;;1.58;;
42964;SDS011;28604;51.204;22.552;2023-07-31T05:24:51;6.32;;;1.70;;
42964;SDS011;28604;51.204;22.552;2023-07-31T05:27:19;4.40;;;1.88;;
42964;SDS011;28604;51.204;22.552;2023-07-31T05:29:45;2.20;;;1.50;;
42964;SDS011;28604;51.204;22.552;2023-07-31T05:32:11;1.42;;;1.42;;
42964;SDS011;28604;51.204;22.552;2023-07-31T05:34:37;2.20;;;2.00;;
42964;SDS011;28604;51.204;22.552;2023-07-31T05:37:03;1.88;;;1.52;;
42964;SDS011;28604;51.204;22.552;2023-07-31T05:39:30;1.27;;;1.27;;
42964;SDS011;28604;51.204;22.552;2023-07-31T05:41:56;1.27;;;1.27;;
42964;SDS011;28604;51.204;22.552;2023-07-31T05:44:21;2.55;;;1.50;;
42964;SDS011;28604;51.204;22.552;2023-07-31T05:46:48;2.85;;;1.45;;
42964;SDS011;28604;51.204;22.552;2023-07-31T05:49:13;1.67;;;1.45;;
42964;SDS011;28604;51.204;22.552;2023-07-31T05:51:40;3.40;;;1.67;;
42964;SDS011;28604;51.204;22.552;2023-07-31T05:54:05;3.33;;;1.83;;
42964;SDS011;28604;51.204;22.552;2023-07-31T05:56:31;4.07;;;2.03;;
42964;SDS011;28604;51.204;22.552;2023-07-31T05:58:59;1.52;;;1.52;;
42964;SDS011;28604;51.204;22.552;2023-07-31T06:01:25;2.28;;;2.03;;
42964;SDS011;28604;51.204;22.552;2023-07-31T06:03:51;9.57;;;1.85;;
42964;SDS011;28604;51.204;22.552;2023-07-31T06:06:17;4.63;;;2.67;;
42964;SDS011;28604;51.204;22.552;2023-07-31T06:08:43;1.73;;;1.63;;
42964;SDS011;28604;51.204;22.552;2023-07-31T06:11:09;2.95;;;1.98;;
42964;SDS011;28604;51.204;22.552;2023-07-31T06:13:35;2.17;;;1.98;;
42964;SDS011;28604;51.204;22.552;2023-07-31T06:16:01;4.28;;;1.65;;
42964;SDS011;28604;51.204;22.552;2023-07-31T06:18:31;2.45;;;2.05;;
42964;SDS011;28604;51.204;22.552;2023-07-31T06:21:00;3.30;;;2.35;;
42964;SDS011;28604;51.204;22.552;2023-07-31T06:23:26;2.35;;;2.25;;
42964;SDS011;28604;51.204;22.552;2023-07-31T06:25:52;4.43;;;1.92;;
42964;SDS011;28604;51.204;22.552;2023-07-31T06:28:18;3.20;;;1.90;;
42964;SDS011;28604;51.204;22.552;2023-07-31T06:30:44;8.70;;;1.98;;
42964;SDS011;28604;51.204;22.552;2023-07-31T06:33:10;3.83;;;1.80;;
42964;SDS011;28604;51.204;22.552;2023-07-31T06:35:36;5.55;;;1.88;;
42964;SDS011;28604;51.204;22.552;2023-07-31T06:38:02;2.08;;;1.65;;
42964;SDS011;28604;51.204;22.552;2023-07-31T06:40:28;3.83;;;1.42;;
42964;SDS011;28604;51.204;22.552;2023-07-31T06:42:55;2.00;;;1.90;;
42964;SDS011;28604;51.204;22.552;2023-07-31T06:45:21;3.25;;;1.67;;
42964;SDS011;28604;51.204;22.552;2023-07-31T06:47:47;2.28;;;1.65;;
42964;SDS011;28604;51.204;22.552;2023-07-31T06:50:13;3.53;;;1.33;;
42964;SDS011;28604;51.204;22.552;2023-07-31T06:52:42;1.23;;;1.13;;
42964;SDS011;28604;51.204;22.552;2023-07-31T06:57:45;1.60;;;1.50;;
42964;SDS011;28604;51.204;22.552;2023-07-31T07:00:12;1.70;;;1.30;;
42964;SDS011;28604;51.204;22.552;2023-07-31T07:02:38;4.57;;;1.70;;
42964;SDS011;28604;51.204;22.552;2023-07-31T07:05:06;5.28;;;1.25;;
42964;SDS011;28604;51.204;22.552;2023-07-31T07:07:32;2.78;;;1.10;;
42964;SDS011;28604;51.204;22.552;2023-07-31T07:09:58;3.22;;;1.73;;
42964;SDS011;28604;51.204;22.552;2023-07-31T07:12:29;2.50;;;1.65;;
42964;SDS011;28604;51.204;22.552;2023-07-31T07:14:56;1.50;;;1.13;;
42964;SDS011;28604;51.204;22.552;2023-07-31T07:17:28;6.90;;;1.42;;
42964;SDS011;28604;51.204;22.552;2023-07-31T07:19:59;1.15;;;1.00;;
42964;SDS011;28604;51.204;22.552;2023-07-31T07:22:25;3.13;;;1.17;;
42964;SDS011;28604;51.204;22.552;2023-07-31T07:25:06;2.45;;;0.85;;
42964;SDS011;28604;51.204;22.552;2023-07-31T07:27:33;3.25;;;0.93;;
42964;SDS011;28604;51.204;22.552;2023-07-31T07:29:58;1.42;;;1.33;;
42964;SDS011;28604;51.204;22.552;2023-07-31T07:32:25;9.65;;;1.58;;
42964;SDS011;28604;51.204;22.552;2023-07-31T07:34:51;6.03;;;1.42;;
42964;SDS011;28604;51.204;22.552;2023-07-31T07:37:17;2.05;;;1.45;;
42964;SDS011;28604;51.204;22.552;2023-07-31T07:39:43;2.00;;;1.00;;
42964;SDS011;28604;51.204;22.552;2023-07-31T07:42:09;2.40;;;1.00;;
42964;SDS011;28604;51.204;22.552;2023-07-31T07:44:35;2.53;;;1.33;;
42964;SDS011;28604;51.204;22.552;2023-07-31T07:47:01;1.48;;;1.00;;
42964;SDS011;28604;51.204;22.552;2023-07-31T07:49:27;2.80;;;1.33;;
42964;SDS011;28604;51.204;22.552;2023-07-31T07:51:56;1.90;;;0.68;;
42964;SDS011;28604;51.204;22.552;2023-07-31T07:54:24;10.32;;;1.27;;
42964;SDS011;28604;51.204;22.552;2023-07-31T07:56:50;2.08;;;1.52;;
42964;SDS011;28604;51.204;22.552;2023-07-31T07:59:16;1.08;;;0.82;;
42964;SDS011;28604;51.204;22.552;2023-07-31T08:01:42;1.30;;;1.20;;
42964;SDS011;28604;51.204;22.552;2023-07-31T08:04:08;5.53;;;1.27;;
42964;SDS011;28604;51.204;22.552;2023-07-31T08:06:34;1.17;;;0.80;;
42964;SDS011;28604;51.204;22.552;2023-07-31T08:09:00;1.15;;;1.15;;
42964;SDS011;28604;51.204;22.552;2023-07-31T08:11:34;3.47;;;1.10;;
42964;SDS011;28604;51.204;22.552;2023-07-31T08:14:00;3.03;;;1.10;;
42964;SDS011;28604;51.204;22.552;2023-07-31T08:16:26;1.75;;;1.10;;
42964;SDS011;28604;51.204;22.552;2023-07-31T08:18:52;2.13;;;1.05;;
42964;SDS011;28604;51.204;22.552;2023-07-31T08:21:19;0.95;;;0.80;;
42964;SDS011;28604;51.204;22.552;2023-07-31T08:23:44;1.35;;;0.73;;
42964;SDS011;28604;51.204;22.552;2023-07-31T08:26:14;2.63;;;0.85;;
42964;SDS011;28604;51.204;22.552;2023-07-31T08:28:41;3.13;;;1.10;;
42964;SDS011;28604;51.204;22.552;2023-07-31T08:31:07;1.88;;;1.02;;
42964;SDS011;28604;51.204;22.552;2023-07-31T08:33:33;0.77;;;0.77;;
42964;SDS011;28604;51.204;22.552;2023-07-31T08:35:59;1.35;;;0.63;;
42964;SDS011;28604;51.204;22.552;2023-07-31T08:38:26;4.43;;;0.93;;
42964;SDS011;28604;51.204;22.552;2023-07-31T08:40:52;2.90;;;0.65;;
42964;SDS011;28604;51.204;22.552;2023-07-31T08:43:19;2.70;;;0.70;;
42964;SDS011;28604;51.204;22.552;2023-07-31T08:45:47;2.08;;;0.85;;
42964;SDS011;28604;51.204;22.552;2023-07-31T08:48:15;2.55;;;1.02;;
42964;SDS011;28604;51.204;22.552;2023-07-31T08:50:42;0.85;;;0.73;;
42964;SDS011;28604;51.204;22.552;2023-07-31T08:53:08;3.05;;;0.73;;
42964;SDS011;28604;51.204;22.552;2023-07-31T08:55:35;9.18;;;1.40;;
42964;SDS011;28604;51.204;22.552;2023-07-31T08:58:02;2.08;;;0.70;;
42964;SDS011;28604;51.204;22.552;2023-07-31T09:00:30;1.45;;;0.98;;
42964;SDS011;28604;51.204;22.552;2023-07-31T09:03:01;1.33;;;0.45;;
42964;SDS011;28604;51.204;22.552;2023-07-31T09:05:29;0.60;;;0.60;;
42964;SDS011;28604;51.204;22.552;2023-07-31T09:07:56;0.77;;;0.47;;
42964;SDS011;28604;51.204;22.552;2023-07-31T09:10:23;0.90;;;0.57;;
42964;SDS011;28604;51.204;22.552;2023-07-31T09:12:50;2.45;;;0.75;;
42964;SDS011;28604;51.204;22.552;2023-07-31T09:15:17;0.45;;;0.45;;
42964;SDS011;28604;51.204;22.552;2023-07-31T09:17:44;3.47;;;0.63;;
42964;SDS011;28604;51.204;22.552;2023-07-31T09:20:20;4.22;;;0.30;;
42964;SDS011;28604;51.204;22.552;2023-07-31T09:22:46;1.42;;;0.50;;
42964;SDS011;28604;51.204;22.552;2023-07-31T09:25:23;2.47;;;0.70;;
42964;SDS011;28604;51.204;22.552;2023-07-31T09:27:54;0.55;;;0.55;;
42964;SDS011;28604;51.204;22.552;2023-07-31T09:30:25;2.42;;;0.98;;
42964;SDS011;28604;51.204;22.552;2023-07-31T09:32:59;0.85;;;0.85;;
42964;SDS011;28604;51.204;22.552;2023-07-31T09:35:31;3.90;;;1.10;;
42964;SDS011;28604;51.204;22.552;2023-07-31T09:38:03;1.13;;;0.75;;
42964;SDS011;28604;51.204;22.552;2023-07-31T09:40:31;1.25;;;1.15;;
42964;SDS011;28604;51.204;22.552;2023-07-31T09:42:59;2.53;;;1.25;;
42964;SDS011;28604;51.204;22.552;2023-07-31T09:45:27;2.22;;;0.60;;
42964;SDS011;28604;51.204;22.552;2023-07-31T09:47:54;1.48;;;0.50;;
42964;SDS011;28604;51.204;22.552;2023-07-31T09:50:21;1.30;;;1.00;;
42964;SDS011;28604;51.204;22.552;2023-07-31T09:52:50;1.10;;;0.65;;
42964;SDS011;28604;51.204;22.552;2023-07-31T09:55:17;2.75;;;0.77;;
42964;SDS011;28604;51.204;22.552;2023-07-31T09:57:45;0.95;;;0.63;;
42964;SDS011;28604;51.204;22.552;2023-07-31T10:00:13;1.30;;;0.60;;
42964;SDS011;28604;51.204;22.552;2023-07-31T10:02:41;1.95;;;0.60;;
42964;SDS011;28604;51.204;22.552;2023-07-31T10:05:12;2.58;;;0.55;;
42964;SDS011;28604;51.204;22.552;2023-07-31T10:07:51;2.88;;;0.82;;
42964;SDS011;28604;51.204;22.552;2023-07-31T10:10:21;1.95;;;0.70;;
42964;SDS011;28604;51.204;22.552;2023-07-31T10:12:48;1.10;;;0.70;;
42964;SDS011;28604;51.204;22.552;2023-07-31T10:15:15;1.40;;;0.90;;
42964;SDS011;28604;51.204;22.552;2023-07-31T10:17:42;1.10;;;0.68;;
42964;SDS011;28604;51.204;22.552;2023-07-31T10:20:09;4.00;;;0.60;;
42964;SDS011;28604;51.204;22.552;2023-07-31T10:22:35;0.57;;;0.40;;
42964;SDS011;28604;51.204;22.552;2023-07-31T10:25:02;1.30;;;0.68;;
42964;SDS011;28604;51.204;22.552;2023-07-31T10:27:28;4.88;;;0.70;;
42964;SDS011;28604;51.204;22.552;2023-07-31T10:29:55;1.45;;;0.60;;
42964;SDS011;28604;51.204;22.552;2023-07-31T10:32:23;0.90;;;0.73;;
42964;SDS011;28604;51.204;22.552;2023-07-31T10:34:50;1.20;;;0.43;;
42964;SDS011;28604;51.204;22.552;2023-07-31T10:37:36;0.90;;;0.70;;
42964;SDS011;28604;51.204;22.552;2023-07-31T10:40:09;4.22;;;0.55;;
42964;SDS011;28604;51.204;22.552;2023-07-31T10:42:46;1.95;;;0.60;;
42964;SDS011;28604;51.204;22.552;2023-07-31T10:45:14;3.53;;;0.50;;
42964;SDS011;28604;51.204;22.552;2023-07-31T10:48:05;0.57;;;0.30;;
42964;SDS011;28604;51.204;22.552;2023-07-31T10:50:36;1.00;;;0.30;;
42964;SDS011;28604;51.204;22.552;2023-07-31T10:53:04;2.05;;;0.40;;
42964;SDS011;28604;51.204;22.552;2023-07-31T10:55:41;0.60;;;0.60;;
42964;SDS011;28604;51.204;22.552;2023-07-31T10:58:10;1.55;;;0.47;;
42964;SDS011;28604;51.204;22.552;2023-07-31T11:00:43;1.85;;;0.70;;
42964;SDS011;28604;51.204;22.552;2023-07-31T11:03:16;0.43;;;0.43;;
42964;SDS011;28604;51.204;22.552;2023-07-31T11:05:52;1.23;;;0.50;;
42964;SDS011;28604;51.204;22.552;2023-07-31T11:08:30;0.85;;;0.60;;
42964;SDS011;28604;51.204;22.552;2023-07-31T11:15:55;0.50;;;0.50;;
42964;SDS011;28604;51.204;22.552;2023-07-31T11:18:21;2.67;;;0.50;;
42964;SDS011;28604;51.204;22.552;2023-07-31T11:20:47;0.70;;;0.70;;
42964;SDS011;28604;51.204;22.552;2023-07-31T11:23:15;1.13;;;0.40;;
42964;SDS011;28604;51.204;22.552;2023-07-31T11:25:42;0.60;;;0.60;;
42964;SDS011;28604;51.204;22.552;2023-07-31T11:28:09;0.50;;;0.50;;
42964;SDS011;28604;51.204;22.552;2023-07-31T11:30:40;1.05;;;0.40;;
42964;SDS011;28604;51.204;22.552;2023-07-31T11:33:07;0.50;;;0.43;;
42964;SDS011;28604;51.204;22.552;2023-07-31T11:35:45;4.65;;;0.55;;
42964;SDS011;28604;51.204;22.552;2023-07-31T11:40:53;1.95;;;0.30;;
42964;SDS011;28604;51.204;22.552;2023-07-31T11:43:20;1.85;;;0.40;;
42964;SDS011;28604;51.204;22.552;2023-07-31T11:45:47;1.27;;;0.30;;
42964;SDS011;28604;51.204;22.552;2023-07-31T11:48:18;2.08;;;0.43;;
42964;SDS011;28604;51.204;22.552;2023-07-31T11:50:46;1.13;;;0.60;;
42964;SDS011;28604;51.204;22.552;2023-07-31T11:53:12;0.55;;;0.30;;
42964;SDS011;28604;51.204;22.552;2023-07-31T11:55:39;3.45;;;0.60;;
42964;SDS011;28604;51.204;22.552;2023-07-31T11:58:05;0.45;;;0.43;;
42964;SDS011;28604;51.204;22.552;2023-07-31T12:00:31;2.47;;;0.30;;
42964;SDS011;28604;51.204;22.552;2023-07-31T12:02:58;8.77;;;0.52;;
42964;SDS011;28604;51.204;22.552;2023-07-31T12:05:24;0.47;;;0.40;;
42964;SDS011;28604;51.204;22.552;2023-07-31T12:07:51;3.20;;;0.57;;
42964;SDS011;28604;51.204;22.552;2023-07-31T12:13:06;1.13;;;0.43;;
42964;SDS011;28604;51.204;22.552;2023-07-31T12:18:16;3.13;;;0.50;;
42964;SDS011;28604;51.204;22.552;2023-07-31T12:20:45;2.00;;;0.47;;
42964;SDS011;28604;51.204;22.552;2023-07-31T12:23:16;1.45;;;0.40;;
42964;SDS011;28604;51.204;22.552;2023-07-31T12:25:44;2.23;;;0.47;;
42964;SDS011;28604;51.204;22.552;2023-07-31T12:28:10;1.85;;;0.40;;
42964;SDS011;28604;51.204;22.552;2023-07-31T12:30:37;1.95;;;0.35;;
42964;SDS011;28604;51.204;22.552;2023-07-31T12:33:06;2.33;;;0.50;;
42964;SDS011;28604;51.204;22.552;2023-07-31T12:35:40;0.40;;;0.40;;
42964;SDS011;28604;51.204;22.552;2023-07-31T12:38:09;0.88;;;0.40;;
42964;SDS011;28604;51.204;22.552;2023-07-31T12:40:38;2.63;;;0.43;;
42964;SDS011;28604;51.204;22.552;2023-07-31T12:43:06;1.80;;;0.55;;
42964;SDS011;28604;51.204;22.552;2023-07-31T12:45:33;1.27;;;0.30;;
42964;SDS011;28604;51.204;22.552;2023-07-31T12:48:00;0.70;;;0.50;;
42964;SDS011;28604;51.204;22.552;2023-07-31T12:50:26;1.25;;;0.45;;
42964;SDS011;28604;51.204;22.552;2023-07-31T12:52:53;2.00;;;0.50;;
42964;SDS011;28604;51.204;22.552;2023-07-31T12:55:21;2.30;;;0.30;;
42964;SDS011;28604;51.204;22.552;2023-07-31T12:57:47;2.30;;;0.55;;
42964;SDS011;28604;51.204;22.552;2023-07-31T13:00:13;1.08;;;0.60;;
42964;SDS011;28604;51.204;22.552;2023-07-31T13:02:40;1.85;;;0.40;;
42964;SDS011;28604;51.204;22.552;2023-07-31T13:05:06;0.47;;;0.30;;
42964;SDS011;28604;51.204;22.552;2023-07-31T13:07:32;2.47;;;0.50;;
42964;SDS011;28604;51.204;22.552;2023-07-31T13:09:58;2.65;;;0.40;;
42964;SDS011;28604;51.204;22.552;2023-07-31T13:12:24;0.82;;;0.30;;
42964;SDS011;28604;51.204;22.552;2023-07-31T13:14:50;0.50;;;0.50;;
42964;SDS011;28604;51.204;22.552;2023-07-31T13:17:17;0.52;;;0.40;;
42964;SDS011;28604;51.204;22.552;2023-07-31T13:19:43;2.15;;;0.60;;
42964;SDS011;28604;51.204;22.552;2023-07-31T13:22:09;3.55;;;0.38;;
42964;SDS011;28604;51.204;22.552;2023-07-31T13:24:35;0.52;;;0.35;;
42964;SDS011;28604;51.204;22.552;2023-07-31T13:27:01;3.33;;;0.50;;
42964;SDS011;28604;51.204;22.552;2023-07-31T13:29:27;2.63;;;0.30;;
42964;SDS011;28604;51.204;22.552;2023-07-31T13:31:55;2.13;;;0.30;;
42964;SDS011;28604;51.204;22.552;2023-07-31T13:34:21;0.45;;;0.22;;
42964;SDS011;28604;51.204;22.552;2023-07-31T13:36:47;1.17;;;0.40;;
42964;SDS011;28604;51.204;22.552;2023-07-31T13:39:13;0.68;;;0.30;;
42964;SDS011;28604;51.204;22.552;2023-07-31T13:41:39;0.57;;;0.30;;
42964;SDS011;28604;51.204;22.552;2023-07-31T13:44:04;1.48;;;0.35;;
42964;SDS011;28604;51.204;22.552;2023-07-31T13:46:31;3.50;;;0.17;;
42964;SDS011;28604;51.204;22.552;2023-07-31T13:48:58;1.77;;;0.65;;
42964;SDS011;28604;51.204;22.552;2023-07-31T13:51:25;0.95;;;0.20;;
42964;SDS011;28604;51.204;22.552;2023-07-31T13:53:52;3.83;;;0.30;;
42964;SDS011;28604;51.204;22.552;2023-07-31T13:56:18;2.15;;;0.30;;
42964;SDS011;28604;51.204;22.552;2023-07-31T13:58:44;6.03;;;0.30;;
42964;SDS011;28604;51.204;22.552;2023-07-31T14:01:10;4.53;;;0.80;;
42964;SDS011;28604;51.204;22.552;2023-07-31T14:03:36;2.05;;;0.50;;
42964;SDS011;28604;51.204;22.552;2023-07-31T14:06:02;0.30;;;0.30;;
42964;SDS011;28604;51.204;22.552;2023-07-31T14:08:28;2.47;;;0.20;;
42964;SDS011;28604;51.204;22.552;2023-07-31T14:10:55;2.70;;;0.20;;
42964;SDS011;28604;51.204;22.552;2023-07-31T14:13:21;5.00;;;1.00;;
42964;SDS011;28604;51.204;22.552;2023-07-31T14:15:47;0.95;;;0.40;;
42964;SDS011;28604;51.204;22.552;2023-07-31T14:18:13;1.23;;;0.43;;
42964;SDS011;28604;51.204;22.552;2023-07-31T14:20:39;0.40;;;0.30;;
42964;SDS011;28604;51.204;22.552;2023-07-31T14:23:05;1.35;;;0.88;;
42964;SDS011;28604;51.204;22.552;2023-07-31T14:25:31;2.40;;;0.35;;
42964;SDS011;28604;51.204;22.552;2023-07-31T14:27:57;0.63;;;0.30;;
42964;SDS011;28604;51.204;22.552;2023-07-31T14:30:23;1.88;;;0.63;;
42964;SDS011;28604;51.204;22.552;2023-07-31T14:32:49;0.68;;;0.28;;
42964;SDS011;28604;51.204;22.552;2023-07-31T14:35:15;1.73;;;0.43;;
42964;SDS011;28604;51.204;22.552;2023-07-31T14:37:43;1.25;;;0.35;;
42964;SDS011;28604;51.204;22.552;2023-07-31T14:40:10;0.98;;;0.47;;
42964;SDS011;28604;51.204;22.552;2023-07-31T14:42:38;2.58;;;0.70;;
42964;SDS011;28604;51.204;22.552;2023-07-31T14:45:05;1.08;;;0.77;;
42964;SDS011;28604;51.204;22.552;2023-07-31T14:47:31;1.05;;;0.68;;
42964;SDS011;28604;51.204;22.552;2023-07-31T14:49:58;6.10;;;0.70;;
42964;SDS011;28604;51.204;22.552;2023-07-31T14:52:25;1.20;;;0.60;;
42964;SDS011;28604;51.204;22.552;2023-07-31T14:54:51;3.22;;;0.57;;